Tinley Park, IL

1:16 PM CDT on October 30, 2014 (GMT -0500)
Lewis University | Change Station
CLOSE
Current Station
Airport
Location: Romeoville,
Elevation: 673 ft
Nearby Weather Stations
Active Advisory: Lakeshore Flood Advisory

Elev 673 ft 41.60 °N, 88.10 °W | Updated 21 minutes ago

Mostly Cloudy
Mostly Cloudy
50 °F
Feels Like 50 °F
N
7
Wind Variable Wind from SSW

Today
High -- | Low -- °F
--% Chance of Precip.
Yesterday
High -- | Low -- °F
Precip. -- in
7:20 AM 5:48 PM
Waxing Crescent, 46% visible
Pressure 30.09 in
Visibility 10.0 miles
Clouds Scattered Clouds 3300 ft
Mostly Cloudy 10000 ft
Mostly Cloudy 12000 ft
Dew Point 34 °F
Humidity 54%
Rainfall 0.00 in
Snow Depth Not available.
UV 2 out of 12
Pollen .20 out of 12
Air Quality Not available.
Flu Activity Not available.
METAR KLOT 301755Z AUTO 20006KT 10SM SCT033 BKN100 BKN120 10/01 A3009 RMK AO2 T01000010 10106 21001

More Conditions Fewer Conditions

Pressure 30.09 in
Visibility 10.0 miles
Clouds Scattered Clouds 3300 ft
Mostly Cloudy 10000 ft
Mostly Cloudy 12000 ft
Dew Point 34 °F
Humidity 54%
Rainfall 0.00 in
Snow Depth Not available.
UV 2 out of 12
Pollen .20 out of 12
Air Quality Not available.
Flu Activity Not available.
METAR KLOT 301755Z AUTO 20006KT 10SM SCT033 BKN100 BKN120 10/01 A3009 RMK AO2 T01000010 10106 21001

More Conditions Fewer Conditions

10-Day Weather Forecast

Almanac

Astronomy

Oct. 30, 2014 Rise Set
Actual Time
Civil Twilight
Nautical Twilight
Astronomical Twilight
Moon
Length of Visible Light
Length of Day
Tomorrow will be .
, % of the Moon is Illuminated

Today's Extremes

State Highs State Lows

Community

WunderPhotos

Upload Photos

1,766,417 photos uploaded!

WunderBlogs® & News

Nearby

Air Quality

  Air Quality AQ Index Pollutant
Not available.

Snow Depth

Station Depth Elevation

Earthquake Activity

City Distance Mag. Time & Date
Minimum magnitude displayed is 2.5.

Coastal Water Temperatures

Place Temperature

Nearby Weather Stations